sensor_id;sensor_type;location;lat;lon;timestamp;P1;durP1;ratioP1;P2;durP2;ratioP2
43628;SDS011;56545;48.224;11.678;2023-05-29T00:00:19;13.90;;;7.50;;
43628;SDS011;56545;48.224;11.678;2023-05-29T00:02:46;13.32;;;7.30;;
43628;SDS011;56545;48.224;11.678;2023-05-29T00:05:13;12.80;;;7.22;;
43628;SDS011;56545;48.224;11.678;2023-05-29T00:07:39;14.57;;;7.97;;
43628;SDS011;56545;48.224;11.678;2023-05-29T00:10:06;13.07;;;7.95;;
43628;SDS011;56545;48.224;11.678;2023-05-29T00:12:34;15.90;;;8.10;;
43628;SDS011;56545;48.224;11.678;2023-05-29T00:15:00;13.00;;;7.70;;
43628;SDS011;56545;48.224;11.678;2023-05-29T00:17:28;12.50;;;7.28;;
43628;SDS011;56545;48.224;11.678;2023-05-29T00:19:57;14.48;;;7.60;;
43628;SDS011;56545;48.224;11.678;2023-05-29T00:22:23;12.80;;;8.05;;
43628;SDS011;56545;48.224;11.678;2023-05-29T00:24:50;13.45;;;8.05;;
43628;SDS011;56545;48.224;11.678;2023-05-29T00:27:17;13.45;;;6.97;;
43628;SDS011;56545;48.224;11.678;2023-05-29T00:29:43;13.63;;;7.70;;
43628;SDS011;56545;48.224;11.678;2023-05-29T00:32:09;11.82;;;7.30;;
43628;SDS011;56545;48.224;11.678;2023-05-29T00:34:35;11.98;;;7.50;;
43628;SDS011;56545;48.224;11.678;2023-05-29T00:37:01;15.20;;;7.53;;
43628;SDS011;56545;48.224;11.678;2023-05-29T00:39:27;13.60;;;7.45;;
43628;SDS011;56545;48.224;11.678;2023-05-29T00:41:53;13.00;;;7.47;;
43628;SDS011;56545;48.224;11.678;2023-05-29T00:44:19;12.82;;;7.35;;
43628;SDS011;56545;48.224;11.678;2023-05-29T00:46:46;14.43;;;7.65;;
43628;SDS011;56545;48.224;11.678;2023-05-29T00:49:14;12.32;;;7.07;;
43628;SDS011;56545;48.224;11.678;2023-05-29T00:51:41;12.52;;;7.45;;
43628;SDS011;56545;48.224;11.678;2023-05-29T00:54:09;13.10;;;7.93;;
43628;SDS011;56545;48.224;11.678;2023-05-29T00:56:39;13.20;;;7.95;;
43628;SDS011;56545;48.224;11.678;2023-05-29T00:59:10;13.60;;;7.80;;
43628;SDS011;56545;48.224;11.678;2023-05-29T01:01:36;12.18;;;7.20;;
43628;SDS011;56545;48.224;11.678;2023-05-29T01:04:03;12.05;;;7.70;;
43628;SDS011;56545;48.224;11.678;2023-05-29T01:06:33;14.25;;;8.13;;
43628;SDS011;56545;48.224;11.678;2023-05-29T01:09:00;13.45;;;7.90;;
43628;SDS011;56545;48.224;11.678;2023-05-29T01:14:01;13.82;;;8.00;;
43628;SDS011;56545;48.224;11.678;2023-05-29T01:16:37;13.10;;;7.65;;
43628;SDS011;56545;48.224;11.678;2023-05-29T01:21:48;14.68;;;7.75;;
43628;SDS011;56545;48.224;11.678;2023-05-29T01:24:42;17.48;;;9.30;;
43628;SDS011;56545;48.224;11.678;2023-05-29T01:27:15;14.43;;;8.43;;
43628;SDS011;56545;48.224;11.678;2023-05-29T01:29:44;13.75;;;7.90;;
43628;SDS011;56545;48.224;11.678;2023-05-29T01:32:12;12.90;;;7.75;;
43628;SDS011;56545;48.224;11.678;2023-05-29T01:34:38;12.65;;;7.82;;
43628;SDS011;56545;48.224;11.678;2023-05-29T01:37:04;12.95;;;8.23;;
43628;SDS011;56545;48.224;11.678;2023-05-29T01:39:30;11.30;;;7.35;;
43628;SDS011;56545;48.224;11.678;2023-05-29T01:41:57;14.52;;;7.72;;
43628;SDS011;56545;48.224;11.678;2023-05-29T01:44:24;14.45;;;7.85;;
43628;SDS011;56545;48.224;11.678;2023-05-29T01:46:51;14.43;;;7.57;;
43628;SDS011;56545;48.224;11.678;2023-05-29T01:49:17;12.93;;;7.22;;
43628;SDS011;56545;48.224;11.678;2023-05-29T01:51:43;13.60;;;7.78;;
43628;SDS011;56545;48.224;11.678;2023-05-29T01:54:10;13.00;;;7.43;;
43628;SDS011;56545;48.224;11.678;2023-05-29T01:56:36;12.82;;;7.97;;
43628;SDS011;56545;48.224;11.678;2023-05-29T01:59:03;14.50;;;8.52;;
43628;SDS011;56545;48.224;11.678;2023-05-29T02:01:29;11.45;;;8.10;;
43628;SDS011;56545;48.224;11.678;2023-05-29T02:03:56;13.50;;;8.32;;
43628;SDS011;56545;48.224;11.678;2023-05-29T02:06:22;15.25;;;8.73;;
43628;SDS011;56545;48.224;11.678;2023-05-29T02:08:48;14.75;;;8.25;;
43628;SDS011;56545;48.224;11.678;2023-05-29T02:11:14;13.38;;;8.25;;
43628;SDS011;56545;48.224;11.678;2023-05-29T02:13:41;14.20;;;8.07;;
43628;SDS011;56545;48.224;11.678;2023-05-29T02:16:07;16.05;;;8.52;;
43628;SDS011;56545;48.224;11.678;2023-05-29T02:18:33;15.07;;;8.07;;
43628;SDS011;56545;48.224;11.678;2023-05-29T02:20:59;15.02;;;8.35;;
43628;SDS011;56545;48.224;11.678;2023-05-29T02:23:26;15.25;;;8.60;;
43628;SDS011;56545;48.224;11.678;2023-05-29T02:25:51;14.90;;;8.27;;
43628;SDS011;56545;48.224;11.678;2023-05-29T02:28:17;16.10;;;8.38;;
43628;SDS011;56545;48.224;11.678;2023-05-29T02:30:43;15.52;;;8.40;;
43628;SDS011;56545;48.224;11.678;2023-05-29T02:33:09;15.43;;;8.50;;
43628;SDS011;56545;48.224;11.678;2023-05-29T02:35:35;13.07;;;7.95;;
43628;SDS011;56545;48.224;11.678;2023-05-29T02:38:01;14.82;;;8.55;;
43628;SDS011;56545;48.224;11.678;2023-05-29T02:40:27;12.23;;;7.93;;
43628;SDS011;56545;48.224;11.678;2023-05-29T02:42:53;14.10;;;8.20;;
43628;SDS011;56545;48.224;11.678;2023-05-29T02:45:19;13.23;;;8.25;;
43628;SDS011;56545;48.224;11.678;2023-05-29T02:47:45;14.02;;;8.13;;
43628;SDS011;56545;48.224;11.678;2023-05-29T02:50:11;14.40;;;8.40;;
43628;SDS011;56545;48.224;11.678;2023-05-29T02:52:39;13.57;;;8.68;;
43628;SDS011;56545;48.224;11.678;2023-05-29T02:55:05;13.60;;;7.85;;
43628;SDS011;56545;48.224;11.678;2023-05-29T02:57:32;14.25;;;8.02;;
43628;SDS011;56545;48.224;11.678;2023-05-29T02:59:58;12.85;;;8.07;;
43628;SDS011;56545;48.224;11.678;2023-05-29T03:02:25;13.65;;;8.77;;
43628;SDS011;56545;48.224;11.678;2023-05-29T03:04:51;13.38;;;7.88;;
43628;SDS011;56545;48.224;11.678;2023-05-29T03:07:18;13.68;;;8.15;;
43628;SDS011;56545;48.224;11.678;2023-05-29T03:09:44;15.40;;;8.15;;
43628;SDS011;56545;48.224;11.678;2023-05-29T03:12:10;15.35;;;8.23;;
43628;SDS011;56545;48.224;11.678;2023-05-29T03:14:36;16.70;;;8.27;;
43628;SDS011;56545;48.224;11.678;2023-05-29T03:17:06;14.93;;;8.73;;
43628;SDS011;56545;48.224;11.678;2023-05-29T03:19:32;14.77;;;8.50;;
43628;SDS011;56545;48.224;11.678;2023-05-29T03:21:58;14.07;;;7.97;;
43628;SDS011;56545;48.224;11.678;2023-05-29T03:24:24;14.05;;;8.07;;
43628;SDS011;56545;48.224;11.678;2023-05-29T03:26:50;12.90;;;7.80;;
43628;SDS011;56545;48.224;11.678;2023-05-29T03:29:16;12.65;;;7.95;;
43628;SDS011;56545;48.224;11.678;2023-05-29T03:31:42;12.43;;;7.63;;
43628;SDS011;56545;48.224;11.678;2023-05-29T03:34:08;13.77;;;7.80;;
43628;SDS011;56545;48.224;11.678;2023-05-29T03:36:34;12.80;;;7.25;;
43628;SDS011;56545;48.224;11.678;2023-05-29T03:39:03;12.65;;;7.55;;
43628;SDS011;56545;48.224;11.678;2023-05-29T03:41:29;13.02;;;7.82;;
43628;SDS011;56545;48.224;11.678;2023-05-29T03:43:55;12.82;;;8.23;;
43628;SDS011;56545;48.224;11.678;2023-05-29T03:46:21;12.43;;;8.05;;
43628;SDS011;56545;48.224;11.678;2023-05-29T03:48:47;13.93;;;7.43;;
43628;SDS011;56545;48.224;11.678;2023-05-29T03:51:13;13.93;;;8.07;;
43628;SDS011;56545;48.224;11.678;2023-05-29T03:53:39;13.48;;;7.93;;
43628;SDS011;56545;48.224;11.678;2023-05-29T03:56:05;14.02;;;7.75;;
43628;SDS011;56545;48.224;11.678;2023-05-29T03:58:31;14.07;;;7.90;;
43628;SDS011;56545;48.224;11.678;2023-05-29T04:00:57;13.80;;;8.23;;
43628;SDS011;56545;48.224;11.678;2023-05-29T04:03:23;11.93;;;7.55;;
43628;SDS011;56545;48.224;11.678;2023-05-29T04:05:49;15.85;;;7.85;;
43628;SDS011;56545;48.224;11.678;2023-05-29T04:08:15;12.70;;;8.05;;
43628;SDS011;56545;48.224;11.678;2023-05-29T04:10:40;13.13;;;7.68;;
43628;SDS011;56545;48.224;11.678;2023-05-29T04:13:06;13.02;;;7.82;;
43628;SDS011;56545;48.224;11.678;2023-05-29T04:15:32;12.82;;;7.85;;
43628;SDS011;56545;48.224;11.678;2023-05-29T04:17:58;13.85;;;7.10;;
43628;SDS011;56545;48.224;11.678;2023-05-29T04:20:25;12.88;;;6.97;;
43628;SDS011;56545;48.224;11.678;2023-05-29T04:22:51;11.85;;;7.20;;
43628;SDS011;56545;48.224;11.678;2023-05-29T04:25:17;12.77;;;7.72;;
43628;SDS011;56545;48.224;11.678;2023-05-29T04:27:43;12.02;;;6.90;;
43628;SDS011;56545;48.224;11.678;2023-05-29T04:30:14;14.27;;;7.45;;
43628;SDS011;56545;48.224;11.678;2023-05-29T04:32:41;10.55;;;6.80;;
43628;SDS011;56545;48.224;11.678;2023-05-29T04:35:07;13.13;;;7.22;;
43628;SDS011;56545;48.224;11.678;2023-05-29T04:37:34;12.90;;;7.00;;
43628;SDS011;56545;48.224;11.678;2023-05-29T04:40:04;14.20;;;7.03;;
43628;SDS011;56545;48.224;11.678;2023-05-29T04:42:34;13.13;;;7.53;;
43628;SDS011;56545;48.224;11.678;2023-05-29T04:45:01;10.77;;;6.38;;
43628;SDS011;56545;48.224;11.678;2023-05-29T04:47:29;11.43;;;6.82;;
43628;SDS011;56545;48.224;11.678;2023-05-29T04:49:57;12.38;;;6.65;;
43628;SDS011;56545;48.224;11.678;2023-05-29T04:52:26;12.32;;;6.88;;
43628;SDS011;56545;48.224;11.678;2023-05-29T04:54:52;11.70;;;6.60;;
43628;SDS011;56545;48.224;11.678;2023-05-29T04:57:19;14.88;;;7.28;;
43628;SDS011;56545;48.224;11.678;2023-05-29T04:59:45;12.07;;;6.45;;
43628;SDS011;56545;48.224;11.678;2023-05-29T05:02:11;12.05;;;6.63;;
43628;SDS011;56545;48.224;11.678;2023-05-29T05:04:37;10.02;;;6.30;;
43628;SDS011;56545;48.224;11.678;2023-05-29T05:07:04;10.90;;;6.10;;
43628;SDS011;56545;48.224;11.678;2023-05-29T05:09:30;11.20;;;6.22;;
43628;SDS011;56545;48.224;11.678;2023-05-29T05:11:56;11.80;;;6.55;;
43628;SDS011;56545;48.224;11.678;2023-05-29T05:14:22;11.60;;;6.38;;
43628;SDS011;56545;48.224;11.678;2023-05-29T05:16:48;12.07;;;6.20;;
43628;SDS011;56545;48.224;11.678;2023-05-29T05:19:16;10.98;;;6.53;;
43628;SDS011;56545;48.224;11.678;2023-05-29T05:21:41;10.95;;;6.40;;
43628;SDS011;56545;48.224;11.678;2023-05-29T05:24:07;12.98;;;6.50;;
43628;SDS011;56545;48.224;11.678;2023-05-29T05:26:33;12.23;;;6.35;;
43628;SDS011;56545;48.224;11.678;2023-05-29T05:28:59;10.82;;;6.43;;
43628;SDS011;56545;48.224;11.678;2023-05-29T05:31:26;9.73;;;5.60;;
43628;SDS011;56545;48.224;11.678;2023-05-29T05:33:52;13.30;;;6.32;;
43628;SDS011;56545;48.224;11.678;2023-05-29T05:36:18;11.98;;;6.45;;
43628;SDS011;56545;48.224;11.678;2023-05-29T05:38:44;14.25;;;6.53;;
43628;SDS011;56545;48.224;11.678;2023-05-29T05:41:10;10.75;;;6.50;;
43628;SDS011;56545;48.224;11.678;2023-05-29T05:43:36;11.13;;;6.40;;
43628;SDS011;56545;48.224;11.678;2023-05-29T05:46:02;12.25;;;6.43;;
43628;SDS011;56545;48.224;11.678;2023-05-29T05:48:28;12.82;;;7.15;;
43628;SDS011;56545;48.224;11.678;2023-05-29T05:50:54;11.88;;;6.10;;
43628;SDS011;56545;48.224;11.678;2023-05-29T05:53:20;11.60;;;6.65;;
43628;SDS011;56545;48.224;11.678;2023-05-29T05:55:46;11.45;;;6.30;;
43628;SDS011;56545;48.224;11.678;2023-05-29T05:58:12;13.70;;;6.43;;
43628;SDS011;56545;48.224;11.678;2023-05-29T06:00:39;12.68;;;6.13;;
43628;SDS011;56545;48.224;11.678;2023-05-29T06:03:05;12.05;;;6.75;;
43628;SDS011;56545;48.224;11.678;2023-05-29T06:05:31;10.80;;;6.38;;
43628;SDS011;56545;48.224;11.678;2023-05-29T06:07:59;12.05;;;6.45;;
43628;SDS011;56545;48.224;11.678;2023-05-29T06:10:25;12.73;;;6.40;;
43628;SDS011;56545;48.224;11.678;2023-05-29T06:12:50;12.25;;;6.53;;
43628;SDS011;56545;48.224;11.678;2023-05-29T06:15:17;13.57;;;6.38;;
43628;SDS011;56545;48.224;11.678;2023-05-29T06:17:43;11.85;;;6.47;;
43628;SDS011;56545;48.224;11.678;2023-05-29T06:20:09;12.38;;;5.95;;
43628;SDS011;56545;48.224;11.678;2023-05-29T06:22:36;12.70;;;6.50;;
43628;SDS011;56545;48.224;11.678;2023-05-29T06:25:02;10.57;;;6.68;;
43628;SDS011;56545;48.224;11.678;2023-05-29T06:27:28;11.13;;;5.88;;
43628;SDS011;56545;48.224;11.678;2023-05-29T06:29:55;13.82;;;6.53;;
43628;SDS011;56545;48.224;11.678;2023-05-29T06:32:21;11.95;;;6.25;;
43628;SDS011;56545;48.224;11.678;2023-05-29T06:34:47;11.75;;;6.18;;
43628;SDS011;56545;48.224;11.678;2023-05-29T06:37:13;9.77;;;6.18;;
43628;SDS011;56545;48.224;11.678;2023-05-29T06:39:39;11.07;;;6.35;;
43628;SDS011;56545;48.224;11.678;2023-05-29T06:42:07;10.93;;;6.15;;
43628;SDS011;56545;48.224;11.678;2023-05-29T06:44:33;11.05;;;6.05;;
43628;SDS011;56545;48.224;11.678;2023-05-29T06:46:59;11.50;;;6.13;;
43628;SDS011;56545;48.224;11.678;2023-05-29T06:49:25;10.25;;;6.32;;
43628;SDS011;56545;48.224;11.678;2023-05-29T06:51:51;12.43;;;5.78;;
43628;SDS011;56545;48.224;11.678;2023-05-29T06:54:17;11.18;;;5.90;;
43628;SDS011;56545;48.224;11.678;2023-05-29T06:56:43;9.93;;;5.95;;
43628;SDS011;56545;48.224;11.678;2023-05-29T06:59:08;17.38;;;11.68;;
43628;SDS011;56545;48.224;11.678;2023-05-29T07:01:39;10.68;;;6.15;;
43628;SDS011;56545;48.224;11.678;2023-05-29T07:04:05;9.07;;;5.53;;
43628;SDS011;56545;48.224;11.678;2023-05-29T07:06:32;11.25;;;6.43;;
43628;SDS011;56545;48.224;11.678;2023-05-29T07:08:58;10.18;;;6.03;;
43628;SDS011;56545;48.224;11.678;2023-05-29T07:11:25;11.55;;;6.18;;
43628;SDS011;56545;48.224;11.678;2023-05-29T07:13:51;10.80;;;6.30;;
43628;SDS011;56545;48.224;11.678;2023-05-29T07:16:19;10.65;;;6.20;;
43628;SDS011;56545;48.224;11.678;2023-05-29T07:18:45;11.52;;;6.30;;
43628;SDS011;56545;48.224;11.678;2023-05-29T07:21:11;11.90;;;6.22;;
43628;SDS011;56545;48.224;11.678;2023-05-29T07:23:37;10.40;;;5.95;;
43628;SDS011;56545;48.224;11.678;2023-05-29T07:26:04;9.00;;;5.57;;
43628;SDS011;56545;48.224;11.678;2023-05-29T07:28:30;12.52;;;6.50;;
43628;SDS011;56545;48.224;11.678;2023-05-29T07:30:56;11.93;;;6.68;;
43628;SDS011;56545;48.224;11.678;2023-05-29T07:33:22;10.75;;;6.10;;
43628;SDS011;56545;48.224;11.678;2023-05-29T07:35:48;10.95;;;5.93;;
43628;SDS011;56545;48.224;11.678;2023-05-29T07:38:14;12.30;;;6.05;;
43628;SDS011;56545;48.224;11.678;2023-05-29T07:40:40;10.73;;;5.97;;
43628;SDS011;56545;48.224;11.678;2023-05-29T07:43:06;11.50;;;5.63;;
43628;SDS011;56545;48.224;11.678;2023-05-29T07:45:32;10.15;;;5.40;;
43628;SDS011;56545;48.224;11.678;2023-05-29T07:47:58;12.88;;;5.68;;
43628;SDS011;56545;48.224;11.678;2023-05-29T07:50:24;8.70;;;5.57;;
43628;SDS011;56545;48.224;11.678;2023-05-29T07:52:49;9.35;;;5.57;;
43628;SDS011;56545;48.224;11.678;2023-05-29T07:55:15;9.18;;;5.40;;
43628;SDS011;56545;48.224;11.678;2023-05-29T07:57:41;10.73;;;5.82;;
43628;SDS011;56545;48.224;11.678;2023-05-29T08:00:10;10.95;;;5.60;;
43628;SDS011;56545;48.224;11.678;2023-05-29T08:02:38;9.82;;;5.53;;
43628;SDS011;56545;48.224;11.678;2023-05-29T08:05:04;12.52;;;6.05;;
43628;SDS011;56545;48.224;11.678;2023-05-29T08:07:32;9.18;;;5.38;;
43628;SDS011;56545;48.224;11.678;2023-05-29T08:09:58;10.75;;;5.57;;
43628;SDS011;56545;48.224;11.678;2023-05-29T08:12:24;11.38;;;5.65;;
43628;SDS011;56545;48.224;11.678;2023-05-29T08:14:51;9.80;;;5.63;;
43628;SDS011;56545;48.224;11.678;2023-05-29T08:17:17;9.77;;;5.22;;
43628;SDS011;56545;48.224;11.678;2023-05-29T08:19:43;11.25;;;5.75;;
43628;SDS011;56545;48.224;11.678;2023-05-29T08:22:11;8.32;;;4.97;;
43628;SDS011;56545;48.224;11.678;2023-05-29T08:24:38;9.57;;;4.80;;
43628;SDS011;56545;48.224;11.678;2023-05-29T08:27:04;8.93;;;5.30;;
43628;SDS011;56545;48.224;11.678;2023-05-29T08:29:30;10.80;;;5.15;;
43628;SDS011;56545;48.224;11.678;2023-05-29T08:32:07;9.75;;;5.40;;
43628;SDS011;56545;48.224;11.678;2023-05-29T08:34:33;11.15;;;5.72;;
43628;SDS011;56545;48.224;11.678;2023-05-29T08:37:01;9.23;;;4.85;;
43628;SDS011;56545;48.224;11.678;2023-05-29T08:39:28;8.90;;;4.60;;
43628;SDS011;56545;48.224;11.678;2023-05-29T08:42:10;8.82;;;4.97;;
43628;SDS011;56545;48.224;11.678;2023-05-29T08:44:39;9.55;;;4.95;;
43628;SDS011;56545;48.224;11.678;2023-05-29T08:47:07;9.52;;;4.50;;
43628;SDS011;56545;48.224;11.678;2023-05-29T08:49:41;10.52;;;5.20;;
43628;SDS011;56545;48.224;11.678;2023-05-29T08:52:13;8.75;;;4.60;;
43628;SDS011;56545;48.224;11.678;2023-05-29T08:54:44;11.95;;;5.18;;
43628;SDS011;56545;48.224;11.678;2023-05-29T08:57:11;10.80;;;5.22;;
43628;SDS011;56545;48.224;11.678;2023-05-29T08:59:37;11.18;;;4.85;;
43628;SDS011;56545;48.224;11.678;2023-05-29T09:02:07;9.27;;;4.60;;
43628;SDS011;56545;48.224;11.678;2023-05-29T09:04:36;8.85;;;4.63;;
43628;SDS011;56545;48.224;11.678;2023-05-29T09:07:02;9.40;;;4.85;;
43628;SDS011;56545;48.224;11.678;2023-05-29T09:09:29;8.18;;;4.55;;
43628;SDS011;56545;48.224;11.678;2023-05-29T09:11:57;9.35;;;4.80;;
43628;SDS011;56545;48.224;11.678;2023-05-29T09:14:36;9.65;;;5.05;;
43628;SDS011;56545;48.224;11.678;2023-05-29T09:17:04;8.80;;;5.00;;
43628;SDS011;56545;48.224;11.678;2023-05-29T09:19:32;9.60;;;4.80;;
43628;SDS011;56545;48.224;11.678;2023-05-29T09:22:07;11.90;;;7.32;;
43628;SDS011;56545;48.224;11.678;2023-05-29T09:24:39;8.10;;;4.80;;
43628;SDS011;56545;48.224;11.678;2023-05-29T09:27:06;9.52;;;4.38;;
43628;SDS011;56545;48.224;11.678;2023-05-29T09:29:35;9.88;;;4.22;;
43628;SDS011;56545;48.224;11.678;2023-05-29T09:32:07;9.48;;;4.20;;
43628;SDS011;56545;48.224;11.678;2023-05-29T09:34:34;8.85;;;4.05;;
43628;SDS011;56545;48.224;11.678;2023-05-29T09:37:04;8.20;;;4.30;;
43628;SDS011;56545;48.224;11.678;2023-05-29T09:39:44;7.95;;;4.30;;
43628;SDS011;56545;48.224;11.678;2023-05-29T09:42:14;8.68;;;4.43;;
43628;SDS011;56545;48.224;11.678;2023-05-29T09:44:41;8.57;;;4.40;;
43628;SDS011;56545;48.224;11.678;2023-05-29T09:47:09;9.35;;;4.20;;
43628;SDS011;56545;48.224;11.678;2023-05-29T09:49:42;7.97;;;4.35;;
43628;SDS011;56545;48.224;11.678;2023-05-29T09:52:10;8.25;;;4.30;;
43628;SDS011;56545;48.224;11.678;2023-05-29T09:54:40;8.65;;;4.05;;
43628;SDS011;56545;48.224;11.678;2023-05-29T09:57:10;8.88;;;4.13;;
43628;SDS011;56545;48.224;11.678;2023-05-29T09:59:45;9.52;;;4.38;;
43628;SDS011;56545;48.224;11.678;2023-05-29T10:02:16;7.85;;;4.03;;
43628;SDS011;56545;48.224;11.678;2023-05-29T10:04:42;7.10;;;3.75;;
43628;SDS011;56545;48.224;11.678;2023-05-29T10:07:22;7.65;;;4.10;;
43628;SDS011;56545;48.224;11.678;2023-05-29T10:09:52;6.75;;;3.70;;
43628;SDS011;56545;48.224;11.678;2023-05-29T10:12:26;8.95;;;4.30;;
43628;SDS011;56545;48.224;11.678;2023-05-29T10:14:54;8.88;;;3.83;;
43628;SDS011;56545;48.224;11.678;2023-05-29T10:17:34;8.23;;;4.18;;
43628;SDS011;56545;48.224;11.678;2023-05-29T10:20:04;8.27;;;4.20;;
43628;SDS011;56545;48.224;11.678;2023-05-29T10:22:34;7.75;;;4.15;;
43628;SDS011;56545;48.224;11.678;2023-05-29T10:25:04;8.38;;;4.20;;
43628;SDS011;56545;48.224;11.678;2023-05-29T10:27:33;6.78;;;3.78;;
43628;SDS011;56545;48.224;11.678;2023-05-29T10:30:02;8.93;;;4.22;;
43628;SDS011;56545;48.224;11.678;2023-05-29T10:33:03;9.23;;;3.88;;
43628;SDS011;56545;48.224;11.678;2023-05-29T10:35:48;8.45;;;3.95;;
43628;SDS011;56545;48.224;11.678;2023-05-29T10:38:29;7.93;;;3.85;;
43628;SDS011;56545;48.224;11.678;2023-05-29T10:40:55;7.90;;;3.95;;
43628;SDS011;56545;48.224;11.678;2023-05-29T10:43:31;9.82;;;4.00;;
43628;SDS011;56545;48.224;11.678;2023-05-29T10:46:01;10.05;;;5.97;;
43628;SDS011;56545;48.224;11.678;2023-05-29T10:51:05;8.45;;;4.45;;
43628;SDS011;56545;48.224;11.678;2023-05-29T10:53:35;7.55;;;3.65;;
43628;SDS011;56545;48.224;11.678;2023-05-29T10:56:06;8.55;;;4.18;;
43628;SDS011;56545;48.224;11.678;2023-05-29T10:58:34;8.15;;;4.00;;
43628;SDS011;56545;48.224;11.678;2023-05-29T11:01:00;8.00;;;4.03;;
43628;SDS011;56545;48.224;11.678;2023-05-29T11:08:46;7.15;;;3.80;;
43628;SDS011;56545;48.224;11.678;2023-05-29T11:11:15;8.05;;;3.90;;
43628;SDS011;56545;48.224;11.678;2023-05-29T11:13:56;8.95;;;3.88;;
43628;SDS011;56545;48.224;11.678;2023-05-29T11:18:54;6.68;;;3.72;;
43628;SDS011;56545;48.224;11.678;2023-05-29T11:24:05;9.60;;;4.90;;
43628;SDS011;56545;48.224;11.678;2023-05-29T11:26:32;11.35;;;6.72;;
43628;SDS011;56545;48.224;11.678;2023-05-29T11:28:59;10.32;;;4.10;;
43628;SDS011;56545;48.224;11.678;2023-05-29T11:31:26;9.27;;;3.88;;
43628;SDS011;56545;48.224;11.678;2023-05-29T11:33:56;8.68;;;4.10;;
43628;SDS011;56545;48.224;11.678;2023-05-29T11:36:26;8.77;;;4.00;;
43628;SDS011;56545;48.224;11.678;2023-05-29T11:38:53;7.32;;;4.00;;
43628;SDS011;56545;48.224;11.678;2023-05-29T11:41:19;9.13;;;3.97;;
43628;SDS011;56545;48.224;11.678;2023-05-29T11:43:55;8.00;;;3.80;;
43628;SDS011;56545;48.224;11.678;2023-05-29T11:46:24;7.10;;;3.90;;
43628;SDS011;56545;48.224;11.678;2023-05-29T11:48:53;7.88;;;4.03;;
43628;SDS011;56545;48.224;11.678;2023-05-29T11:51:18;8.00;;;4.20;;
43628;SDS011;56545;48.224;11.678;2023-05-29T11:53:46;7.18;;;4.00;;
43628;SDS011;56545;48.224;11.678;2023-05-29T11:56:13;6.95;;;3.88;;
43628;SDS011;56545;48.224;11.678;2023-05-29T11:58:39;8.85;;;4.45;;
43628;SDS011;56545;48.224;11.678;2023-05-29T12:01:06;8.80;;;4.05;;
43628;SDS011;56545;48.224;11.678;2023-05-29T12:03:41;6.97;;;3.85;;
43628;SDS011;56545;48.224;11.678;2023-05-29T12:06:10;7.95;;;4.13;;
43628;SDS011;56545;48.224;11.678;2023-05-29T12:08:37;7.28;;;3.58;;
43628;SDS011;56545;48.224;11.678;2023-05-29T12:11:04;7.57;;;3.70;;
43628;SDS011;56545;48.224;11.678;2023-05-29T12:13:30;6.90;;;3.60;;
43628;SDS011;56545;48.224;11.678;2023-05-29T12:15:57;7.93;;;3.88;;
43628;SDS011;56545;48.224;11.678;2023-05-29T12:18:26;8.63;;;3.90;;
43628;SDS011;56545;48.224;11.678;2023-05-29T12:21:02;7.00;;;3.65;;
43628;SDS011;56545;48.224;11.678;2023-05-29T12:23:29;6.45;;;3.63;;
43628;SDS011;56545;48.224;11.678;2023-05-29T12:25:55;7.50;;;3.50;;
43628;SDS011;56545;48.224;11.678;2023-05-29T12:28:21;6.28;;;3.55;;
43628;SDS011;56545;48.224;11.678;2023-05-29T12:30:48;6.95;;;3.65;;
43628;SDS011;56545;48.224;11.678;2023-05-29T12:33:30;8.82;;;3.70;;
43628;SDS011;56545;48.224;11.678;2023-05-29T12:38:31;9.00;;;3.90;;
43628;SDS011;56545;48.224;11.678;2023-05-29T12:40:57;7.88;;;3.85;;
43628;SDS011;56545;48.224;11.678;2023-05-29T12:43:26;5.90;;;3.28;;
43628;SDS011;56545;48.224;11.678;2023-05-29T12:45:56;6.38;;;3.40;;
43628;SDS011;56545;48.224;11.678;2023-05-29T12:50:52;7.22;;;3.25;;
43628;SDS011;56545;48.224;11.678;2023-05-29T12:53:18;8.15;;;3.40;;
43628;SDS011;56545;48.224;11.678;2023-05-29T12:55:44;8.02;;;3.70;;
43628;SDS011;56545;48.224;11.678;2023-05-29T12:58:11;6.72;;;3.58;;
43628;SDS011;56545;48.224;11.678;2023-05-29T13:00:45;7.10;;;3.85;;
43628;SDS011;56545;48.224;11.678;2023-05-29T13:03:11;8.68;;;3.70;;
43628;SDS011;56545;48.224;11.678;2023-05-29T13:05:37;6.90;;;3.80;;
43628;SDS011;56545;48.224;11.678;2023-05-29T13:08:03;8.40;;;3.95;;
43628;SDS011;56545;48.224;11.678;2023-05-29T13:10:35;7.57;;;3.45;;
43628;SDS011;56545;48.224;11.678;2023-05-29T13:13:01;6.30;;;3.42;;
43628;SDS011;56545;48.224;11.678;2023-05-29T13:15:28;7.05;;;3.83;;
43628;SDS011;56545;48.224;11.678;2023-05-29T13:17:54;8.60;;;3.60;;
43628;SDS011;56545;48.224;11.678;2023-05-29T13:20:20;7.47;;;3.50;;
43628;SDS011;56545;48.224;11.678;2023-05-29T13:22:46;7.10;;;4.07;;
43628;SDS011;56545;48.224;11.678;2023-05-29T13:25:14;10.32;;;3.63;;
43628;SDS011;56545;48.224;11.678;2023-05-29T13:27:45;7.50;;;3.47;;
43628;SDS011;56545;48.224;11.678;2023-05-29T13:30:11;6.38;;;3.63;;
43628;SDS011;56545;48.224;11.678;2023-05-29T13:32:38;7.65;;;3.70;;
43628;SDS011;56545;48.224;11.678;2023-05-29T13:35:05;9.98;;;3.85;;
43628;SDS011;56545;48.224;11.678;2023-05-29T13:37:31;8.73;;;3.95;;
43628;SDS011;56545;48.224;11.678;2023-05-29T13:39:57;10.48;;;5.70;;
43628;SDS011;56545;48.224;11.678;2023-05-29T13:42:23;11.45;;;7.93;;
43628;SDS011;56545;48.224;11.678;2023-05-29T13:44:49;8.20;;;3.75;;
43628;SDS011;56545;48.224;11.678;2023-05-29T13:47:15;6.65;;;3.50;;
43628;SDS011;56545;48.224;11.678;2023-05-29T13:49:41;8.32;;;3.53;;
43628;SDS011;56545;48.224;11.678;2023-05-29T13:52:08;7.47;;;3.42;;
43628;SDS011;56545;48.224;11.678;2023-05-29T13:54:34;8.80;;;3.40;;
43628;SDS011;56545;48.224;11.678;2023-05-29T13:57:03;6.80;;;3.72;;
43628;SDS011;56545;48.224;11.678;2023-05-29T13:59:33;8.27;;;3.45;;
43628;SDS011;56545;48.224;11.678;2023-05-29T14:01:59;9.10;;;3.85;;
43628;SDS011;56545;48.224;11.678;2023-05-29T14:04:26;6.57;;;3.30;;
43628;SDS011;56545;48.224;11.678;2023-05-29T14:06:53;6.00;;;2.97;;
43628;SDS011;56545;48.224;11.678;2023-05-29T14:09:21;7.03;;;3.17;;
43628;SDS011;56545;48.224;11.678;2023-05-29T14:11:52;7.57;;;3.78;;
43628;SDS011;56545;48.224;11.678;2023-05-29T14:14:19;6.50;;;3.45;;
43628;SDS011;56545;48.224;11.678;2023-05-29T14:16:45;7.22;;;3.63;;
43628;SDS011;56545;48.224;11.678;2023-05-29T14:19:11;9.05;;;3.58;;
43628;SDS011;56545;48.224;11.678;2023-05-29T14:21:37;8.00;;;3.78;;
43628;SDS011;56545;48.224;11.678;2023-05-29T14:24:03;8.60;;;3.42;;
43628;SDS011;56545;48.224;11.678;2023-05-29T14:26:29;8.27;;;3.50;;
43628;SDS011;56545;48.224;11.678;2023-05-29T14:28:55;6.47;;;3.55;;
43628;SDS011;56545;48.224;11.678;2023-05-29T14:31:21;6.30;;;3.20;;
43628;SDS011;56545;48.224;11.678;2023-05-29T14:33:47;6.38;;;3.20;;
43628;SDS011;56545;48.224;11.678;2023-05-29T14:36:13;6.75;;;3.22;;
43628;SDS011;56545;48.224;11.678;2023-05-29T14:38:39;6.57;;;3.70;;
43628;SDS011;56545;48.224;11.678;2023-05-29T14:41:06;12.93;;;4.00;;
43628;SDS011;56545;48.224;11.678;2023-05-29T14:43:32;7.53;;;3.67;;
43628;SDS011;56545;48.224;11.678;2023-05-29T14:45:58;9.02;;;3.60;;
43628;SDS011;56545;48.224;11.678;2023-05-29T14:48:24;6.05;;;3.33;;
43628;SDS011;56545;48.224;11.678;2023-05-29T14:50:50;6.35;;;3.38;;